sensor_id;sensor_type;location;lat;lon;timestamp;pressure;altitude;pressure_sealevel;temperature;humidity
33191;BME280;19554;42.652;23.364;2023-10-13T00:01:31;95117.44;;;14.32;57.23
33191;BME280;19554;42.652;23.364;2023-10-13T00:03:56;95126.59;;;14.31;56.60
33191;BME280;19554;42.652;23.364;2023-10-13T00:06:21;95102.72;;;14.16;57.04
33191;BME280;19554;42.652;23.364;2023-10-13T00:08:47;95098.53;;;14.10;56.54
33191;BME280;19554;42.652;23.364;2023-10-13T00:11:14;95113.47;;;14.16;56.83
33191;BME280;19554;42.652;23.364;2023-10-13T00:13:41;95115.66;;;14.14;57.09
33191;BME280;19554;42.652;23.364;2023-10-13T00:16:17;95114.66;;;14.10;57.44
33191;BME280;19554;42.652;23.364;2023-10-13T00:18:46;95086.81;;;13.92;57.53
33191;BME280;19554;42.652;23.364;2023-10-13T00:21:13;95085.72;;;13.93;57.53
33191;BME280;19554;42.652;23.364;2023-10-13T00:23:44;95112.63;;;14.02;57.63
33191;BME280;19554;42.652;23.364;2023-10-13T00:26:23;95080.03;;;13.94;58.92
33191;BME280;19554;42.652;23.364;2023-10-13T00:29:02;95091.47;;;14.00;59.09
33191;BME280;19554;42.652;23.364;2023-10-13T00:31:43;95112.69;;;14.15;58.16
33191;BME280;19554;42.652;23.364;2023-10-13T00:34:11;95094.88;;;14.06;58.18
33191;BME280;19554;42.652;23.364;2023-10-13T00:36:37;95087.22;;;13.99;57.79
33191;BME280;19554;42.652;23.364;2023-10-13T00:39:02;95118.31;;;14.14;57.26
33191;BME280;19554;42.652;23.364;2023-10-13T00:41:32;95101.09;;;14.01;57.57
33191;BME280;19554;42.652;23.364;2023-10-13T00:44:16;95106.47;;;14.01;57.58
33191;BME280;19554;42.652;23.364;2023-10-13T00:46:43;95112.16;;;13.99;56.96
33191;BME280;19554;42.652;23.364;2023-10-13T00:49:10;95113.53;;;13.97;57.27
33191;BME280;19554;42.652;23.364;2023-10-13T00:51:41;95108.34;;;13.87;57.34
33191;BME280;19554;42.652;23.364;2023-10-13T00:54:12;95105.38;;;13.74;55.34
33191;BME280;19554;42.652;23.364;2023-10-13T00:56:39;95123.16;;;13.84;56.67
33191;BME280;19554;42.652;23.364;2023-10-13T00:59:12;95119.78;;;13.79;57.81
33191;BME280;19554;42.652;23.364;2023-10-13T01:01:39;95090.31;;;13.60;58.65
33191;BME280;19554;42.652;23.364;2023-10-13T01:04:08;95091.41;;;13.59;57.34
33191;BME280;19554;42.652;23.364;2023-10-13T01:06:37;95101.13;;;13.55;57.46
33191;BME280;19554;42.652;23.364;2023-10-13T01:09:07;95125.91;;;13.65;57.53
33191;BME280;19554;42.652;23.364;2023-10-13T01:11:44;95117.72;;;13.57;57.50
33191;BME280;19554;42.652;23.364;2023-10-13T01:14:13;95116.72;;;13.52;57.74
33191;BME280;19554;42.652;23.364;2023-10-13T01:16:43;95101.38;;;13.39;58.71
33191;BME280;19554;42.652;23.364;2023-10-13T01:19:13;95090.75;;;13.34;58.26
33191;BME280;19554;42.652;23.364;2023-10-13T01:21:42;95125.28;;;13.55;58.41
33191;BME280;19554;42.652;23.364;2023-10-13T01:24:09;95127.44;;;13.52;58.32
33191;BME280;19554;42.652;23.364;2023-10-13T01:26:36;95110.41;;;13.43;58.34
33191;BME280;19554;42.652;23.364;2023-10-13T01:29:05;95098.78;;;13.34;59.31
33191;BME280;19554;42.652;23.364;2023-10-13T01:31:44;95101.94;;;13.36;59.22
33191;BME280;19554;42.652;23.364;2023-10-13T01:34:17;95103.34;;;13.34;58.35
33191;BME280;19554;42.652;23.364;2023-10-13T01:36:48;95115.50;;;13.45;58.03
33191;BME280;19554;42.652;23.364;2023-10-13T01:39:16;95110.94;;;13.45;57.53
33191;BME280;19554;42.652;23.364;2023-10-13T01:41:42;95100.66;;;13.34;56.90
33191;BME280;19554;42.652;23.364;2023-10-13T01:44:09;95105.88;;;13.25;57.63
33191;BME280;19554;42.652;23.364;2023-10-13T01:46:38;95110.06;;;13.12;57.84
33191;BME280;19554;42.652;23.364;2023-10-13T01:49:04;95131.94;;;13.19;58.69
33191;BME280;19554;42.652;23.364;2023-10-13T01:51:29;95120.50;;;13.14;58.95
33191;BME280;19554;42.652;23.364;2023-10-13T01:53:55;95125.34;;;13.12;58.82
33191;BME280;19554;42.652;23.364;2023-10-13T01:56:22;95129.03;;;13.16;58.78
33191;BME280;19554;42.652;23.364;2023-10-13T01:58:48;95102.53;;;12.95;59.11
33191;BME280;19554;42.652;23.364;2023-10-13T02:01:14;95112.63;;;13.03;59.23
33191;BME280;19554;42.652;23.364;2023-10-13T02:03:51;95125.28;;;13.17;59.33
33191;BME280;19554;42.652;23.364;2023-10-13T02:06:26;95120.50;;;13.14;57.72
33191;BME280;19554;42.652;23.364;2023-10-13T02:09:01;95117.47;;;13.20;57.21
33191;BME280;19554;42.652;23.364;2023-10-13T02:11:36;95085.81;;;13.03;58.18
33191;BME280;19554;42.652;23.364;2023-10-13T02:14:03;95090.66;;;13.01;59.06
33191;BME280;19554;42.652;23.364;2023-10-13T02:16:28;95098.13;;;13.04;59.02
33191;BME280;19554;42.652;23.364;2023-10-13T02:18:56;95108.78;;;13.10;58.80
33191;BME280;19554;42.652;23.364;2023-10-13T02:21:23;95091.22;;;12.98;59.12
33191;BME280;19554;42.652;23.364;2023-10-13T02:23:56;95107.16;;;13.09;59.68
33191;BME280;19554;42.652;23.364;2023-10-13T02:26:26;95083.19;;;12.98;59.70
33191;BME280;19554;42.652;23.364;2023-10-13T02:29:01;95091.22;;;12.98;59.83
33191;BME280;19554;42.652;23.364;2023-10-13T02:31:35;95118.88;;;13.13;59.85
33191;BME280;19554;42.652;23.364;2023-10-13T02:34:01;95115.16;;;13.14;59.64
33191;BME280;19554;42.652;23.364;2023-10-13T02:36:37;95116.72;;;13.15;59.53
33191;BME280;19554;42.652;23.364;2023-10-13T02:39:12;95082.72;;;12.96;59.39
33191;BME280;19554;42.652;23.364;2023-10-13T02:41:39;95091.22;;;12.98;58.46
33191;BME280;19554;42.652;23.364;2023-10-13T02:44:06;95102.38;;;13.05;58.44
33191;BME280;19554;42.652;23.364;2023-10-13T02:46:34;95088.13;;;12.91;57.27
33191;BME280;19554;42.652;23.364;2023-10-13T02:49:05;95113.19;;;13.00;57.92
33191;BME280;19554;42.652;23.364;2023-10-13T02:51:37;95104.28;;;12.86;58.85
33191;BME280;19554;42.652;23.364;2023-10-13T02:54:07;95112.94;;;12.78;56.87
33191;BME280;19554;42.652;23.364;2023-10-13T02:56:37;95136.44;;;12.86;57.62
33191;BME280;19554;42.652;23.364;2023-10-13T02:59:03;95133.81;;;12.81;57.89
33191;BME280;19554;42.652;23.364;2023-10-13T03:01:33;95137.94;;;12.73;59.37
33191;BME280;19554;42.652;23.364;2023-10-13T03:04:03;95124.84;;;12.72;59.03
33191;BME280;19554;42.652;23.364;2023-10-13T03:06:29;95115.50;;;12.69;59.18
33191;BME280;19554;42.652;23.364;2023-10-13T03:09:10;95125.84;;;12.76;59.65
33191;BME280;19554;42.652;23.364;2023-10-13T03:11:50;95139.69;;;12.83;59.44
33191;BME280;19554;42.652;23.364;2023-10-13T03:14:16;95119.09;;;12.78;59.19
33191;BME280;19554;42.652;23.364;2023-10-13T03:17:03;95135.44;;;12.82;59.56
33191;BME280;19554;42.652;23.364;2023-10-13T03:19:32;95138.91;;;12.83;58.52
33191;BME280;19554;42.652;23.364;2023-10-13T03:22:05;95138.59;;;12.84;58.24
33191;BME280;19554;42.652;23.364;2023-10-13T03:24:40;95116.94;;;12.62;59.15
33191;BME280;19554;42.652;23.364;2023-10-13T03:27:16;95134.03;;;12.66;59.25
33191;BME280;19554;42.652;23.364;2023-10-13T03:29:43;95136.03;;;12.74;59.67
33191;BME280;19554;42.652;23.364;2023-10-13T03:32:14;95127.13;;;12.60;59.13
33191;BME280;19554;42.652;23.364;2023-10-13T03:34:47;95132.47;;;12.60;59.39
33191;BME280;19554;42.652;23.364;2023-10-13T03:37:20;95132.25;;;12.56;59.75
33191;BME280;19554;42.652;23.364;2023-10-13T03:40:09;95146.97;;;12.59;60.04
33191;BME280;19554;42.652;23.364;2023-10-13T03:42:58;95134.16;;;12.55;60.48
33191;BME280;19554;42.652;23.364;2023-10-13T03:45:40;95128.28;;;12.53;59.84
33191;BME280;19554;42.652;23.364;2023-10-13T03:48:12;95110.97;;;12.46;59.64
33191;BME280;19554;42.652;23.364;2023-10-13T03:50:58;95070.75;;;12.27;59.45
33191;BME280;19554;42.652;23.364;2023-10-13T03:53:34;95122.34;;;12.56;60.16
33191;BME280;19554;42.652;23.364;2023-10-13T03:56:04;95111.75;;;12.46;59.34
33191;BME280;19554;42.652;23.364;2023-10-13T03:58:55;95076.69;;;12.24;60.09
33191;BME280;19554;42.652;23.364;2023-10-13T04:01:25;95101.63;;;12.43;60.29
33191;BME280;19554;42.652;23.364;2023-10-13T04:03:58;95082.72;;;12.35;60.83
33191;BME280;19554;42.652;23.364;2023-10-13T04:06:35;95088.88;;;12.35;59.88
33191;BME280;19554;42.652;23.364;2023-10-13T04:09:22;95105.97;;;12.39;59.95
33191;BME280;19554;42.652;23.364;2023-10-13T04:12:05;95093.66;;;12.38;60.86
33191;BME280;19554;42.652;23.364;2023-10-13T04:14:41;95100.59;;;12.39;61.18
33191;BME280;19554;42.652;23.364;2023-10-13T04:17:25;95097.63;;;12.41;61.36
33191;BME280;19554;42.652;23.364;2023-10-13T04:19:57;95101.63;;;12.43;61.34
33191;BME280;19554;42.652;23.364;2023-10-13T04:22:36;95087.25;;;12.34;60.89
33191;BME280;19554;42.652;23.364;2023-10-13T04:25:22;95074.25;;;12.27;60.66
33191;BME280;19554;42.652;23.364;2023-10-13T04:28:01;95100.59;;;12.39;59.93
33191;BME280;19554;42.652;23.364;2023-10-13T04:33:22;95113.34;;;12.47;59.37
33191;BME280;19554;42.652;23.364;2023-10-13T04:36:03;95119.53;;;12.48;59.85
33191;BME280;19554;42.652;23.364;2023-10-13T04:38:40;95124.88;;;12.48;60.10
33191;BME280;19554;42.652;23.364;2023-10-13T04:41:28;95116.59;;;12.44;60.01
33191;BME280;19554;42.652;23.364;2023-10-13T04:43:58;95130.44;;;12.51;57.95
33191;BME280;19554;42.652;23.364;2023-10-13T04:46:30;95110.28;;;12.35;58.56
33191;BME280;19554;42.652;23.364;2023-10-13T04:49:11;95115.44;;;12.31;59.32
33191;BME280;19554;42.652;23.364;2023-10-13T04:51:56;95125.34;;;12.31;60.16
33191;BME280;19554;42.652;23.364;2023-10-13T04:54:28;95134.31;;;12.40;60.11
33191;BME280;19554;42.652;23.364;2023-10-13T04:57:13;95143.38;;;12.44;59.07
33191;BME280;19554;42.652;23.364;2023-10-13T04:59:48;95147.19;;;12.62;58.73
33191;BME280;19554;42.652;23.364;2023-10-13T05:02:32;95163.78;;;12.83;59.35
33191;BME280;19554;42.652;23.364;2023-10-13T05:05:05;95165.69;;;13.01;58.33
33191;BME280;19554;42.652;23.364;2023-10-13T05:07:32;95165.97;;;13.19;57.54
33191;BME280;19554;42.652;23.364;2023-10-13T05:10:17;95158.13;;;13.27;55.64
33191;BME280;19554;42.652;23.364;2023-10-13T05:13:01;95138.91;;;13.39;55.37
33191;BME280;19554;42.652;23.364;2023-10-13T05:15:49;95166.84;;;13.71;54.76
33191;BME280;19554;42.652;23.364;2023-10-13T05:18:34;95166.06;;;13.84;53.87
33191;BME280;19554;42.652;23.364;2023-10-13T05:21:18;95180.81;;;13.87;54.42
33191;BME280;19554;42.652;23.364;2023-10-13T05:24:04;95176.06;;;13.97;54.37
33191;BME280;19554;42.652;23.364;2023-10-13T05:26:47;95163.44;;;13.98;54.31
33191;BME280;19554;42.652;23.364;2023-10-13T05:29:31;95181.28;;;14.35;54.35
33191;BME280;19554;42.652;23.364;2023-10-13T05:32:16;95168.25;;;14.42;52.93
33191;BME280;19554;42.652;23.364;2023-10-13T05:35:00;95186.81;;;14.72;53.28
33191;BME280;19554;42.652;23.364;2023-10-13T05:37:43;95163.16;;;14.60;53.56
33191;BME280;19554;42.652;23.364;2023-10-13T05:40:27;95193.06;;;15.08;52.80
33191;BME280;19554;42.652;23.364;2023-10-13T05:43:11;95170.72;;;15.22;51.42
33191;BME280;19554;42.652;23.364;2023-10-13T05:46:03;95172.56;;;15.49;49.97
33191;BME280;19554;42.652;23.364;2023-10-13T05:48:48;95174.78;;;15.69;49.57
33191;BME280;19554;42.652;23.364;2023-10-13T05:51:26;95187.56;;;15.86;48.94
33191;BME280;19554;42.652;23.364;2023-10-13T05:54:02;95167.22;;;16.02;48.82
33191;BME280;19554;42.652;23.364;2023-10-13T05:56:40;95193.22;;;16.29;48.93
33191;BME280;19554;42.652;23.364;2023-10-13T05:59:24;95189.78;;;16.38;49.76
33191;BME280;19554;42.652;23.364;2023-10-13T06:02:08;95192.09;;;16.30;51.14
33191;BME280;19554;42.652;23.364;2023-10-13T06:04:52;95183.06;;;16.26;51.30
33191;BME280;19554;42.652;23.364;2023-10-13T06:07:36;95184.59;;;16.50;51.08
33191;BME280;19554;42.652;23.364;2023-10-13T06:10:20;95178.16;;;16.28;51.42
33191;BME280;19554;42.652;23.364;2023-10-13T06:13:04;95208.84;;;16.19;51.89
33191;BME280;19554;42.652;23.364;2023-10-13T06:15:48;95206.84;;;16.02;52.48
33191;BME280;19554;42.652;23.364;2023-10-13T06:18:32;95207.00;;;16.28;52.54
33191;BME280;19554;42.652;23.364;2023-10-13T06:21:16;95197.38;;;16.35;52.46
33191;BME280;19554;42.652;23.364;2023-10-13T06:24:00;95214.59;;;16.57;52.26
33191;BME280;19554;42.652;23.364;2023-10-13T06:26:44;95213.00;;;16.56;52.21
33191;BME280;19554;42.652;23.364;2023-10-13T06:29:30;95199.72;;;16.68;51.98
33191;BME280;19554;42.652;23.364;2023-10-13T06:31:56;95193.00;;;16.79;51.37
33191;BME280;19554;42.652;23.364;2023-10-13T06:34:23;95159.56;;;16.58;51.26
33191;BME280;19554;42.652;23.364;2023-10-13T06:37:04;95218.94;;;17.15;50.80
33191;BME280;19554;42.652;23.364;2023-10-13T06:39:48;95207.19;;;17.11;50.48
33191;BME280;19554;42.652;23.364;2023-10-13T06:42:13;95221.47;;;17.12;51.07
33191;BME280;19554;42.652;23.364;2023-10-13T06:44:40;95222.47;;;17.42;50.61
33191;BME280;19554;42.652;23.364;2023-10-13T06:47:10;95210.28;;;17.70;49.98
33191;BME280;19554;42.652;23.364;2023-10-13T06:49:37;95216.81;;;17.87;49.31
33191;BME280;19554;42.652;23.364;2023-10-13T06:52:04;95209.53;;;17.79;49.31
33191;BME280;19554;42.652;23.364;2023-10-13T06:54:34;95211.88;;;17.80;48.38
33191;BME280;19554;42.652;23.364;2023-10-13T06:57:00;95214.44;;;17.94;48.17
33191;BME280;19554;42.652;23.364;2023-10-13T06:59:31;95212.34;;;18.08;47.77
33191;BME280;19554;42.652;23.364;2023-10-13T07:02:00;95211.09;;;17.97;48.17
33191;BME280;19554;42.652;23.364;2023-10-13T07:04:37;95191.72;;;17.95;48.49
33191;BME280;19554;42.652;23.364;2023-10-13T07:07:05;95194.97;;;18.35;47.33
33191;BME280;19554;42.652;23.364;2023-10-13T07:09:36;95187.06;;;18.68;46.72
33191;BME280;19554;42.652;23.364;2023-10-13T07:12:03;95190.41;;;18.74;46.47
33191;BME280;19554;42.652;23.364;2023-10-13T07:14:50;95187.44;;;18.97;45.30
33191;BME280;19554;42.652;23.364;2023-10-13T07:17:39;95182.25;;;19.12;45.50
33191;BME280;19554;42.652;23.364;2023-10-13T07:20:06;95176.25;;;19.28;44.52
33191;BME280;19554;42.652;23.364;2023-10-13T07:22:41;95194.78;;;19.26;44.85
33191;BME280;19554;42.652;23.364;2023-10-13T07:25:20;95191.22;;;19.55;44.96
33191;BME280;19554;42.652;23.364;2023-10-13T07:27:50;95206.56;;;19.72;44.12
33191;BME280;19554;42.652;23.364;2023-10-13T07:30:16;95203.94;;;19.63;44.02
33191;BME280;19554;42.652;23.364;2023-10-13T07:32:45;95201.69;;;19.65;44.01
33191;BME280;19554;42.652;23.364;2023-10-13T07:35:15;95198.19;;;19.64;43.96
33191;BME280;19554;42.652;23.364;2023-10-13T07:37:43;95193.75;;;19.81;43.95
33191;BME280;19554;42.652;23.364;2023-10-13T07:40:10;95186.91;;;19.96;43.37
33191;BME280;19554;42.652;23.364;2023-10-13T07:42:52;95187.94;;;19.91;43.32
33191;BME280;19554;42.652;23.364;2023-10-13T07:45:17;95178.00;;;19.95;43.15
33191;BME280;19554;42.652;23.364;2023-10-13T07:47:47;95191.25;;;19.97;43.71
33191;BME280;19554;42.652;23.364;2023-10-13T07:50:12;95187.09;;;20.11;43.23
33191;BME280;19554;42.652;23.364;2023-10-13T07:52:38;95164.03;;;20.05;42.99
33191;BME280;19554;42.652;23.364;2023-10-13T07:55:19;95180.53;;;20.12;43.43
33191;BME280;19554;42.652;23.364;2023-10-13T07:57:47;95170.13;;;20.02;43.46
33191;BME280;19554;42.652;23.364;2023-10-13T08:00:20;95174.47;;;20.16;43.15
33191;BME280;19554;42.652;23.364;2023-10-13T08:03:12;95176.09;;;20.29;43.03
33191;BME280;19554;42.652;23.364;2023-10-13T08:05:41;95162.00;;;20.02;43.52
33191;BME280;19554;42.652;23.364;2023-10-13T08:08:26;95175.38;;;20.20;43.12
33191;BME280;19554;42.652;23.364;2023-10-13T08:10:52;95175.84;;;20.22;42.95
33191;BME280;19554;42.652;23.364;2023-10-13T08:13:25;95110.50;;;19.90;42.79
33191;BME280;19554;42.652;23.364;2023-10-13T08:15:51;95140.28;;;20.35;42.39
33191;BME280;19554;42.652;23.364;2023-10-13T08:18:18;95171.97;;;20.68;41.61
33191;BME280;19554;42.652;23.364;2023-10-13T08:20:57;95169.88;;;20.86;41.81
33191;BME280;19554;42.652;23.364;2023-10-13T08:23:28;95147.03;;;20.87;40.87
33191;BME280;19554;42.652;23.364;2023-10-13T08:26:24;95177.09;;;21.06;41.30
33191;BME280;19554;42.652;23.364;2023-10-13T08:29:03;95171.31;;;21.20;41.03
33191;BME280;19554;42.652;23.364;2023-10-13T08:31:44;95177.75;;;21.28;40.72
33191;BME280;19554;42.652;23.364;2023-10-13T08:34:15;95104.97;;;20.81;40.47
33191;BME280;19554;42.652;23.364;2023-10-13T08:36:48;95189.09;;;20.93;41.31
33191;BME280;19554;42.652;23.364;2023-10-13T08:39:14;95182.53;;;20.94;41.47
33191;BME280;19554;42.652;23.364;2023-10-13T08:42:08;95169.84;;;20.98;41.80
33191;BME280;19554;42.652;23.364;2023-10-13T08:44:41;95168.03;;;21.02;41.31
33191;BME280;19554;42.652;23.364;2023-10-13T08:47:13;95163.28;;;21.12;41.34
33191;BME280;19554;42.652;23.364;2023-10-13T08:49:44;95166.91;;;21.28;41.73
33191;BME280;19554;42.652;23.364;2023-10-13T08:52:17;95162.13;;;21.49;40.34
33191;BME280;19554;42.652;23.364;2023-10-13T08:55:03;95155.13;;;21.24;40.85
33191;BME280;19554;42.652;23.364;2023-10-13T08:57:58;95174.16;;;21.12;41.00
33191;BME280;19554;42.652;23.364;2023-10-13T09:00:38;95168.16;;;20.94;41.42
33191;BME280;19554;42.652;23.364;2023-10-13T09:03:22;95158.78;;;20.91;41.92
33191;BME280;19554;42.652;23.364;2023-10-13T09:05:47;95159.00;;;20.98;42.02
33191;BME280;19554;42.652;23.364;2023-10-13T09:08:39;95158.09;;;21.06;41.66
33191;BME280;19554;42.652;23.364;2023-10-13T09:11:31;95121.34;;;20.85;41.47
33191;BME280;19554;42.652;23.364;2023-10-13T09:14:02;95160.56;;;21.24;41.64
33191;BME280;19554;42.652;23.364;2023-10-13T09:16:29;95159.66;;;21.44;41.28
33191;BME280;19554;42.652;23.364;2023-10-13T09:19:06;95118.69;;;21.25;41.06
33191;BME280;19554;42.652;23.364;2023-10-13T09:21:41;95156.91;;;21.57;40.83
33191;BME280;19554;42.652;23.364;2023-10-13T09:24:11;95151.19;;;21.74;40.35
33191;BME280;19554;42.652;23.364;2023-10-13T09:26:58;95157.22;;;21.95;39.86
33191;BME280;19554;42.652;23.364;2023-10-13T09:29:26;95153.97;;;22.18;39.29
33191;BME280;19554;42.652;23.364;2023-10-13T09:32:01;95136.44;;;22.31;39.32
33191;BME280;19554;42.652;23.364;2023-10-13T09:34:28;95136.44;;;22.31;38.82
33191;BME280;19554;42.652;23.364;2023-10-13T09:37:00;95137.84;;;22.25;39.03
33191;BME280;19554;42.652;23.364;2023-10-13T09:39:28;95140.13;;;22.23;39.04
33191;BME280;19554;42.652;23.364;2023-10-13T09:42:11;95128.75;;;22.33;38.79
33191;BME280;19554;42.652;23.364;2023-10-13T09:44:38;95130.31;;;22.34;38.70
33191;BME280;19554;42.652;23.364;2023-10-13T09:47:09;95111.53;;;22.29;38.41
33191;BME280;19554;42.652;23.364;2023-10-13T09:49:45;95114.34;;;22.48;38.37
33191;BME280;19554;42.652;23.364;2023-10-13T09:52:15;95066.50;;;22.32;37.77
33191;BME280;19554;42.652;23.364;2023-10-13T09:55:05;95118.38;;;22.55;37.75
33191;BME280;19554;42.652;23.364;2023-10-13T09:57:41;95118.72;;;22.37;37.59
33191;BME280;19554;42.652;23.364;2023-10-13T10:00:16;95117.50;;;22.19;38.12
33191;BME280;19554;42.652;23.364;2023-10-13T10:03:12;95104.03;;;22.10;38.13
33191;BME280;19554;42.652;23.364;2023-10-13T10:06:02;95114.50;;;22.24;38.28
33191;BME280;19554;42.652;23.364;2023-10-13T10:08:32;95111.72;;;22.36;37.04
33191;BME280;19554;42.652;23.364;2023-10-13T10:11:13;95112.94;;;22.55;36.90
33191;BME280;19554;42.652;23.364;2023-10-13T10:16:50;95102.16;;;22.74;36.18
33191;BME280;19554;42.652;23.364;2023-10-13T10:19:25;95095.19;;;22.77;36.22
33191;BME280;19554;42.652;23.364;2023-10-13T10:22:01;95099.66;;;22.85;36.45
33191;BME280;19554;42.652;23.364;2023-10-13T10:24:30;95093.34;;;22.97;35.70
33191;BME280;19554;42.652;23.364;2023-10-13T10:26:56;95089.91;;;23.00;35.73
33191;BME280;19554;42.652;23.364;2023-10-13T10:29:21;95084.69;;;23.10;35.84
33191;BME280;19554;42.652;23.364;2023-10-13T10:31:47;95080.28;;;23.22;34.99
33191;BME280;19554;42.652;23.364;2023-10-13T10:34:14;95085.25;;;23.35;34.15
33191;BME280;19554;42.652;23.364;2023-10-13T10:36:53;95086.81;;;23.36;33.79
33191;BME280;19554;42.652;23.364;2023-10-13T10:39:19;95076.19;;;23.31;33.87
33191;BME280;19554;42.652;23.364;2023-10-13T10:41:44;95076.72;;;23.37;33.15
33191;BME280;19554;42.652;23.364;2023-10-13T10:44:17;95075.78;;;23.49;33.36
33191;BME280;19554;42.652;23.364;2023-10-13T10:47:12;95079.53;;;23.60;33.10
33191;BME280;19554;42.652;23.364;2023-10-13T10:49:59;95041.03;;;23.42;32.45
33191;BME280;19554;42.652;23.364;2023-10-13T10:52:28;95076.84;;;23.63;32.23
33191;BME280;19554;42.652;23.364;2023-10-13T10:55:02;95070.03;;;23.54;32.32
33191;BME280;19554;42.652;23.364;2023-10-13T10:57:32;95065.25;;;23.47;32.02
33191;BME280;19554;42.652;23.364;2023-10-13T11:00:05;95063.03;;;23.53;32.37
33191;BME280;19554;42.652;23.364;2023-10-13T11:02:37;95081.09;;;23.61;32.32
33191;BME280;19554;42.652;23.364;2023-10-13T11:05:03;95068.69;;;23.63;32.23
33191;BME280;19554;42.652;23.364;2023-10-13T11:07:31;95070.41;;;23.72;32.20
33191;BME280;19554;42.652;23.364;2023-10-13T11:10:10;95064.56;;;23.70;32.22
33191;BME280;19554;42.652;23.364;2023-10-13T11:12:59;95057.22;;;23.54;31.88
33191;BME280;19554;42.652;23.364;2023-10-13T11:15:45;95049.03;;;23.54;31.84
33191;BME280;19554;42.652;23.364;2023-10-13T11:18:11;95054.69;;;23.65;31.74
33191;BME280;19554;42.652;23.364;2023-10-13T11:20:42;95056.78;;;23.72;31.74
33191;BME280;19554;42.652;23.364;2023-10-13T11:23:14;95048.69;;;23.75;31.66
33191;BME280;19554;42.652;23.364;2023-10-13T11:25:40;95051.13;;;23.80;31.44
33191;BME280;19554;42.652;23.364;2023-10-13T11:28:18;95043.47;;;23.89;31.58
33191;BME280;19554;42.652;23.364;2023-10-13T11:30:52;95040.41;;;23.91;31.64
33191;BME280;19554;42.652;23.364;2023-10-13T11:33:19;95038.19;;;23.97;31.37
33191;BME280;19554;42.652;23.364;2023-10-13T11:35:53;95042.09;;;23.99;31.23
33191;BME280;19554;42.652;23.364;2023-10-13T11:38:19;95029.81;;;24.09;30.70
33191;BME280;19554;42.652;23.364;2023-10-13T11:41:04;95031.91;;;23.96;30.75
33191;BME280;19554;42.652;23.364;2023-10-13T11:43:40;95031.00;;;23.88;30.83
33191;BME280;19554;42.652;23.364;2023-10-13T11:46:12;95023.75;;;23.96;30.90
33191;BME280;19554;42.652;23.364;2023-10-13T11:48:40;95022.34;;;24.06;30.14
33191;BME280;19554;42.652;23.364;2023-10-13T11:51:11;95014.00;;;23.95;30.20
33191;BME280;19554;42.652;23.364;2023-10-13T11:54:00;94993.56;;;23.85;30.41
33191;BME280;19554;42.652;23.364;2023-10-13T11:56:25;95021.81;;;23.97;30.61
33191;BME280;19554;42.652;23.364;2023-10-13T11:58:51;94993.63;;;23.89;30.16
33191;BME280;19554;42.652;23.364;2023-10-13T12:01:17;95012.72;;;24.12;30.58
33191;BME280;19554;42.652;23.364;2023-10-13T12:03:45;94977.66;;;23.87;30.40
33191;BME280;19554;42.652;23.364;2023-10-13T12:06:30;95001.59;;;23.98;29.95
33191;BME280;19554;42.652;23.364;2023-10-13T12:09:08;94991.94;;;24.04;30.26
33191;BME280;19554;42.652;23.364;2023-10-13T12:11:43;94994.47;;;24.16;30.28
33191;BME280;19554;42.652;23.364;2023-10-13T12:14:14;94990.91;;;24.12;30.02
33191;BME280;19554;42.652;23.364;2023-10-13T12:17:02;95000.81;;;24.24;30.06
33191;BME280;19554;42.652;23.364;2023-10-13T12:19:36;94998.47;;;24.22;30.16
33191;BME280;19554;42.652;23.364;2023-10-13T12:22:02;94982.72;;;24.12;30.47
33191;BME280;19554;42.652;23.364;2023-10-13T12:24:34;94989.34;;;24.11;30.12
33191;BME280;19554;42.652;23.364;2023-10-13T12:27:00;94964.00;;;23.87;30.74
33191;BME280;19554;42.652;23.364;2023-10-13T12:29:25;94994.78;;;24.11;30.48
33191;BME280;19554;42.652;23.364;2023-10-13T12:31:58;94982.28;;;24.10;30.40
33191;BME280;19554;42.652;23.364;2023-10-13T12:34:40;94988.50;;;24.07;29.97
33191;BME280;19554;42.652;23.364;2023-10-13T12:37:25;94959.47;;;23.95;30.31
33191;BME280;19554;42.652;23.364;2023-10-13T12:40:16;94982.66;;;24.08;30.33
33191;BME280;19554;42.652;23.364;2023-10-13T12:43:00;94970.19;;;24.07;30.14
33191;BME280;19554;42.652;23.364;2023-10-13T12:45:46;94977.75;;;24.18;30.10
33191;BME280;19554;42.652;23.364;2023-10-13T12:48:32;94978.88;;;24.17;30.28
33191;BME280;19554;42.652;23.364;2023-10-13T12:51:16;94925.72;;;23.80;30.33
33191;BME280;19554;42.652;23.364;2023-10-13T12:54:01;94928.91;;;23.86;30.41
33191;BME280;19554;42.652;23.364;2023-10-13T12:57:01;94969.25;;;24.23;30.14
33191;BME280;19554;42.652;23.364;2023-10-13T12:59:27;94970.91;;;24.27;30.20
33191;BME280;19554;42.652;23.364;2023-10-13T13:01:53;94973.31;;;24.32;30.18
33191;BME280;19554;42.652;23.364;2023-10-13T13:04:19;94967.78;;;24.29;30.39
33191;BME280;19554;42.652;23.364;2023-10-13T13:06:50;94977.25;;;24.35;29.63
33191;BME280;19554;42.652;23.364;2023-10-13T13:09:16;94964.38;;;24.35;29.61
33191;BME280;19554;42.652;23.364;2023-10-13T13:11:53;94974.88;;;24.33;29.71
33191;BME280;19554;42.652;23.364;2023-10-13T13:14:25;94929.34;;;24.11;29.54
33191;BME280;19554;42.652;23.364;2023-10-13T13:16:59;94970.34;;;24.41;29.36
33191;BME280;19554;42.652;23.364;2023-10-13T13:19:36;94972.72;;;24.43;29.17
33191;BME280;19554;42.652;23.364;2023-10-13T13:22:07;94969.25;;;24.46;29.54
33191;BME280;19554;42.652;23.364;2023-10-13T13:27:09;94964.09;;;24.41;29.60
33191;BME280;19554;42.652;23.364;2023-10-13T13:29:38;94972.63;;;24.39;29.86
33191;BME280;19554;42.652;23.364;2023-10-13T13:32:04;94965.13;;;24.32;29.88
33191;BME280;19554;42.652;23.364;2023-10-13T13:34:30;94972.56;;;24.35;30.05
33191;BME280;19554;42.652;23.364;2023-10-13T13:36:57;94967.84;;;24.32;29.93